Time;durP1;ratioP1;P1;durP2;ratioP2;P2;SDS_P1;SDS_P2;PMS_P1;PMS_P2;Temp;Humidity;BMP_temperature;BMP_pressure;BME280_temperature;BME280_humidity;BME280_pressure;Samples;Min_cycle;Max_cycle;Signal;HPM_P1;HPM_P2
2022/01/08 00:00:44;;;;;;;33.30;16.33;;;;;;;1.25;91.08;101017.66;5087009;28;20048;-72
2022/01/08 00:03:10;;;;;;;34.17;15.70;;;;;;;1.23;90.67;101023.50;5083733;28;20042;-72
2022/01/08 00:05:35;;;;;;;33.70;16.20;;;;;;;1.21;90.63;101020.81;5083346;28;20238;-72
2022/01/08 00:08:01;;;;;;;33.35;15.30;;;;;;;1.21;90.64;101028.53;5083548;28;20017;-72
2022/01/08 00:10:26;;;;;;;34.08;15.52;;;;;;;1.18;91.21;101025.78;5084335;28;20148;-72
2022/01/08 00:12:51;;;;;;;32.92;15.73;;;;;;;1.16;90.56;101033.38;5083432;28;20024;-72
2022/01/08 00:15:17;;;;;;;33.22;15.45;;;;;;;1.14;90.80;101027.22;5083499;28;20024;-72
2022/01/08 00:17:43;;;;;;;35.10;16.23;;;;;;;1.12;90.96;101031.41;5083609;28;20127;-72
2022/01/08 00:20:09;;;;;;;35.22;16.13;;;;;;;1.10;90.45;101035.56;5083092;28;20032;-72
2022/01/08 00:22:35;;;;;;;31.42;16.25;;;;;;;1.08;90.53;101039.69;5087259;28;20074;-72
2022/01/08 00:25:00;;;;;;;32.58;15.93;;;;;;;1.06;90.55;101043.84;5083362;28;20035;-72
2022/01/08 00:27:26;;;;;;;31.63;15.18;;;;;;;1.02;90.03;101039.28;5082886;28;20024;-72
2022/01/08 00:29:51;;;;;;;30.23;15.07;;;;;;;1.00;90.20;101035.72;5083292;28;20031;-72
2022/01/08 00:32:17;;;;;;;32.72;15.95;;;;;;;1.00;90.81;101036.63;5084357;28;20039;-72
2022/01/08 00:34:43;;;;;;;28.63;15.43;;;;;;;0.99;90.50;101044.22;5083026;28;20024;-72
2022/01/08 00:37:09;;;;;;;33.25;16.02;;;;;;;0.99;91.03;101049.34;5083271;28;20062;-72
2022/01/08 00:39:35;;;;;;;33.60;16.27;;;;;;;0.99;91.11;101051.91;5083116;28;20029;-72
2022/01/08 00:42:00;;;;;;;32.42;15.98;;;;;;;0.97;90.76;101048.34;5083503;28;20043;-72
2022/01/08 00:44:25;;;;;;;31.85;15.50;;;;;;;0.97;90.39;101050.91;5082995;28;20274;-72
2022/01/08 00:46:51;;;;;;;35.53;15.65;;;;;;;0.95;90.44;101050.81;5083076;28;20012;-72
2022/01/08 00:49:16;;;;;;;32.97;15.45;;;;;;;0.92;90.59;101062.56;5085828;28;20012;-72
2022/01/08 00:51:42;;;;;;;35.75;16.77;;;;;;;0.90;90.53;101069.25;5087460;28;20019;-72
2022/01/08 00:54:07;;;;;;;32.00;15.85;;;;;;;0.90;91.02;101076.94;5087338;28;20012;-72
2022/01/08 00:56:32;;;;;;;36.72;16.17;;;;;;;0.91;91.00;101073.59;5087317;28;20040;-72
2022/01/08 00:58:58;;;;;;;34.65;16.67;;;;;;;0.90;90.85;101080.44;5087293;28;20316;-72
2022/01/08 01:01:23;;;;;;;34.53;16.23;;;;;;;0.92;91.19;101077.97;5086783;28;20024;-73
2022/01/08 01:03:48;;;;;;;32.63;15.60;;;;;;;0.91;91.12;101066.78;5087149;28;20381;-72
2022/01/08 01:06:14;;;;;;;34.10;15.57;;;;;;;0.93;90.79;101070.38;5086847;28;20036;-72
2022/01/08 01:08:39;;;;;;;31.98;15.65;;;;;;;0.92;90.45;101065.13;5087210;28;20055;-72
2022/01/08 01:11:04;;;;;;;34.20;15.65;;;;;;;0.92;91.65;101062.56;5086924;28;20041;-72
2022/01/08 01:13:30;;;;;;;31.95;15.38;;;;;;;0.93;91.73;101062.66;5086697;28;20036;-72
2022/01/08 01:15:55;;;;;;;29.25;14.38;;;;;;;0.96;91.85;101060.28;5089748;28;20164;-72
2022/01/08 01:18:20;;;;;;;32.10;15.02;;;;;;;0.99;91.11;101064.75;5087363;28;20058;-72
2022/01/08 01:20:45;;;;;;;36.08;15.60;;;;;;;0.99;90.91;101063.06;5086416;28;20016;-72
2022/01/08 01:23:19;;;;;;;29.80;14.82;;;;;;;1.00;90.87;101059.72;5093095;28;20046;-72
2022/01/08 01:25:52;;;;;;;29.63;14.43;;;;;;;1.01;91.28;101058.03;5085091;28;20326;-72
2022/01/08 01:41:09;;;;;;;33.42;15.40;;;;;;;0.96;90.35;101062.88;5089175;28;20088;-72
2022/01/08 01:47:10;;;;;;;37.53;17.42;;;;;;;0.82;90.84;101087.59;5085670;28;20351;-72
2022/01/08 01:49:42;;;;;;;36.33;17.33;;;;;;;0.81;90.17;101084.94;5086383;28;20028;-72
2022/01/08 01:52:09;;;;;;;38.63;18.17;;;;;;;0.79;90.82;101083.94;5085747;28;20028;-72
2022/01/08 01:54:36;;;;;;;37.25;17.30;;;;;;;0.75;90.58;101082.84;5086418;28;20024;-73
2022/01/08 01:57:03;;;;;;;36.08;17.63;;;;;;;0.73;90.57;101080.97;5086483;28;20059;-72
2022/01/08 01:59:30;;;;;;;37.95;17.95;;;;;;;0.71;90.09;101073.19;5071781;28;20266;-72
2022/01/08 02:01:56;;;;;;;37.65;17.77;;;;;;;0.69;90.81;101072.19;5085611;28;20027;-72
2022/01/08 02:04:22;;;;;;;41.15;18.92;;;;;;;0.69;91.02;101069.63;5087352;28;20024;-72
2022/01/08 02:06:47;;;;;;;39.95;19.65;;;;;;;0.67;91.22;101066.94;5086071;28;20024;-72
2022/01/08 02:09:13;;;;;;;39.65;17.88;;;;;;;0.67;90.83;101071.19;5086227;28;20021;-72
2022/01/08 02:12:00;;;;;;;40.13;19.23;;;;;;;0.65;90.51;101067.63;5086085;28;20351;-72
2022/01/08 02:14:28;;;;;;;41.65;19.65;;;;;;;0.62;90.67;101070.00;5079970;28;20348;-72
2022/01/08 02:16:53;;;;;;;43.75;21.38;;;;;;;0.62;90.36;101077.69;5088904;28;20032;-72
2022/01/08 02:19:19;;;;;;;41.88;19.23;;;;;;;0.59;90.85;101074.91;5085832;28;20047;-72
2022/01/08 02:21:56;;;;;;;43.10;19.75;;;;;;;0.59;91.23;101077.47;5085951;28;20024;-73
2022/01/08 02:24:23;;;;;;;42.75;20.15;;;;;;;0.58;91.29;101078.25;5086055;28;20051;-72
2022/01/08 02:26:49;;;;;;;42.85;19.70;;;;;;;0.56;90.87;101080.72;5086159;28;20020;-73
2022/01/08 02:29:18;;;;;;;45.60;20.38;;;;;;;0.55;91.01;101078.97;5085530;28;20020;-73
2022/01/08 02:31:52;;;;;;;42.50;20.42;;;;;;;0.52;91.03;101086.41;5084141;28;20174;-73
2022/01/08 02:34:17;;;;;;;43.45;20.48;;;;;;;0.50;91.02;101085.44;5078964;28;20030;-73
2022/01/08 02:36:42;;;;;;;45.72;20.23;;;;;;;0.47;91.71;101085.22;5085268;28;20047;-73
2022/01/08 02:39:08;;;;;;;44.10;21.02;;;;;;;0.46;91.61;101079.19;5085985;28;20078;-73
2022/01/08 02:41:34;;;;;;;44.55;20.98;;;;;;;0.45;91.74;101089.34;5085697;28;20028;-72
2022/01/08 02:43:59;;;;;;;43.47;20.17;;;;;;;0.45;91.90;101086.78;5085083;28;20032;-73
2022/01/08 02:46:24;;;;;;;51.90;21.17;;;;;;;0.46;91.82;101091.13;5085357;28;20046;-73
2022/01/08 02:48:50;;;;;;;46.78;22.08;;;;;;;0.46;91.99;101086.88;5084379;28;20012;-72
2022/01/08 02:51:15;;;;;;;44.25;22.02;;;;;;;0.46;91.99;101092.00;5083404;28;20114;-72
2022/01/08 02:53:40;;;;;;;50.80;22.73;;;;;;;0.47;92.29;101092.94;5085001;28;20056;-72
2022/01/08 02:56:07;;;;;;;45.58;21.20;;;;;;;0.46;92.85;101097.13;5083705;28;20036;-73
2022/01/08 02:58:33;;;;;;;48.17;22.02;;;;;;;0.45;92.18;101090.25;5094303;28;20023;-72
2022/01/08 03:00:58;;;;;;;46.60;21.30;;;;;;;0.46;92.11;101097.13;5084299;28;20016;-72
2022/01/08 03:03:24;;;;;;;49.53;23.05;;;;;;;0.46;92.50;101086.88;5084844;28;20020;-72
2022/01/08 03:05:50;;;;;;;46.03;21.83;;;;;;;0.47;92.38;101092.94;5085072;28;20032;-72
2022/01/08 03:08:16;;;;;;;42.95;20.55;;;;;;;0.46;92.65;101091.13;5083919;28;20020;-72
2022/01/08 03:10:41;;;;;;;46.00;22.33;;;;;;;0.47;92.08;101087.78;5084449;28;20043;-72
2022/01/08 03:13:07;;;;;;;46.50;21.40;;;;;;;0.47;92.05;101087.78;5084873;28;20278;-72
2022/01/08 03:15:35;;;;;;;47.33;21.52;;;;;;;0.46;92.07;101094.56;5085019;28;20170;-72
2022/01/08 03:18:02;;;;;;;46.63;20.35;;;;;;;0.44;92.56;101088.47;5085706;28;20047;-72
2022/01/08 03:20:28;;;;;;;48.15;20.17;;;;;;;0.46;91.77;101086.88;5084599;28;20047;-72
2022/01/08 03:23:00;;;;;;;46.70;20.63;;;;;;;0.46;92.60;101088.56;5082977;28;20248;-72
2022/01/08 03:25:26;;;;;;;45.97;20.30;;;;;;;0.47;91.91;101091.25;5083695;28;20020;-72
2022/01/08 03:27:53;;;;;;;49.55;20.52;;;;;;;0.47;92.72;101088.69;5084943;28;20020;-72
2022/01/08 03:30:18;;;;;;;48.90;20.67;;;;;;;0.48;92.47;101087.91;5084545;28;20069;-72
2022/01/08 03:32:44;;;;;;;43.45;19.20;;;;;;;0.49;92.29;101089.69;5084138;28;20258;-72
2022/01/08 03:35:10;;;;;;;46.72;20.48;;;;;;;0.49;92.42;101093.91;5084012;28;20024;-72
2022/01/08 03:37:35;;;;;;;45.38;19.88;;;;;;;0.49;92.62;101092.25;5084410;28;20076;-72
2022/01/08 03:40:01;;;;;;;44.72;19.67;;;;;;;0.49;92.00;101099.03;5084356;28;20042;-72
2022/01/08 03:42:26;;;;;;;41.90;19.58;;;;;;;0.48;91.64;101098.16;5084487;28;20012;-72
2022/01/08 03:44:51;;;;;;;42.63;19.88;;;;;;;0.47;92.00;101098.06;5073653;28;20301;-72
2022/01/08 03:47:42;;;;;;;47.22;20.55;;;;;;;0.46;91.87;101102.28;5084967;28;20024;-73
2022/01/08 03:50:07;;;;;;;41.17;19.48;;;;;;;0.46;92.39;101098.81;5082807;28;20324;-72
2022/01/08 03:52:33;;;;;;;42.75;19.98;;;;;;;0.47;92.90;101098.06;5081905;28;20024;-72
2022/01/08 03:54:59;;;;;;;46.55;20.77;;;;;;;0.47;92.01;101098.06;5083396;28;20009;-72
2022/01/08 03:57:24;;;;;;;44.53;18.88;;;;;;;0.45;92.51;101074.88;5084346;28;20009;-73
2022/01/08 03:59:49;;;;;;;44.28;20.52;;;;;;;0.45;92.05;101084.22;5085212;28;20083;-72
2022/01/08 04:02:15;;;;;;;41.58;19.65;;;;;;;0.44;91.85;101083.34;5087440;28;20251;-72
2022/01/08 04:04:40;;;;;;;40.10;19.70;;;;;;;0.44;91.88;101098.72;5082344;28;20027;-72
2022/01/08 04:07:05;;;;;;;40.67;19.73;;;;;;;0.42;92.21;101110.56;5083350;28;20036;-72
2022/01/08 04:09:31;;;;;;;43.80;20.65;;;;;;;0.39;92.29;101110.34;5085636;28;20034;-72
2022/01/08 04:11:56;;;;;;;41.40;19.70;;;;;;;0.37;92.74;101105.91;5092708;28;20243;-72
2022/01/08 04:14:22;;;;;;;41.72;19.85;;;;;;;0.37;92.38;101111.91;5083452;28;20263;-72
2022/01/08 04:16:51;;;;;;;43.38;20.65;;;;;;;0.36;92.73;101114.38;5083648;28;20016;-72
2022/01/08 04:19:17;;;;;;;42.45;19.73;;;;;;;0.36;92.32;101114.38;5084207;28;20019;-72
2022/01/08 04:24:13;;;;;;;41.63;19.90;;;;;;;0.38;92.43;101123.03;5083405;28;20024;-72
2022/01/08 04:26:39;;;;;;;43.13;19.98;;;;;;;0.38;92.50;101116.25;5083721;28;20062;-72
2022/01/08 04:29:06;;;;;;;38.55;20.45;;;;;;;0.39;93.09;101115.47;5088127;28;20020;-72
2022/01/08 04:31:31;;;;;;;40.53;20.55;;;;;;;0.38;92.99;101118.81;5082953;28;20238;-72
2022/01/08 04:33:56;;;;;;;44.33;21.40;;;;;;;0.41;93.41;101128.41;5082857;28;20073;-72
2022/01/08 04:36:22;;;;;;;42.47;20.83;;;;;;;0.41;93.08;101138.66;5083413;28;20036;-72
2022/01/08 04:38:48;;;;;;;39.90;20.75;;;;;;;0.38;93.10;101139.31;5092411;28;20045;-72
2022/01/08 04:41:13;;;;;;;46.03;21.65;;;;;;;0.40;92.93;101136.88;5087807;28;20071;-71
2022/01/08 04:43:43;;;;;;;41.78;22.67;;;;;;;0.37;92.77;101132.41;5083188;28;20171;-72
2022/01/08 04:46:08;;;;;;;37.17;20.73;;;;;;;0.37;92.72;101134.97;5089734;28;20016;-72
2022/01/08 04:48:33;;;;;;;44.38;22.00;;;;;;;0.36;92.91;101128.06;5089715;28;20057;-72
2022/01/08 04:50:59;;;;;;;41.60;21.65;;;;;;;0.36;92.86;101129.75;5083211;28;20039;-72
2022/01/08 04:53:24;;;;;;;43.83;20.85;;;;;;;0.33;92.68;101136.44;5083518;28;20066;-72
2022/01/08 04:55:49;;;;;;;40.00;21.67;;;;;;;0.34;93.22;101147.56;5083319;28;20259;-72
2022/01/08 04:58:15;;;;;;;46.85;21.50;;;;;;;0.34;93.30;101140.78;5083314;28;20092;-72
2022/01/08 05:00:41;;;;;;;40.53;21.42;;;;;;;0.35;93.57;101151.94;5082149;28;20259;-72
2022/01/08 05:03:06;;;;;;;39.33;21.35;;;;;;;0.33;92.92;101154.38;5092540;28;20024;-72
2022/01/08 05:05:31;;;;;;;42.70;21.60;;;;;;;0.36;93.49;101150.25;5082977;28;20283;-72
2022/01/08 05:07:57;;;;;;;43.88;21.15;;;;;;;0.36;92.66;101143.44;5083684;28;20025;-72
2022/01/08 05:10:23;;;;;;;43.13;21.20;;;;;;;0.37;93.45;101142.66;5083063;28;20123;-71
2022/01/08 05:12:48;;;;;;;38.47;20.58;;;;;;;0.37;93.10;101147.78;5083070;28;20195;-71
2022/01/08 05:15:15;;;;;;;44.72;21.77;;;;;;;0.38;92.98;101153.78;5082928;28;20048;-72
2022/01/08 05:17:42;;;;;;;42.92;21.05;;;;;;;0.37;92.86;101162.28;5083213;28;20171;-72
2022/01/08 05:20:11;;;;;;;35.97;20.45;;;;;;;0.35;93.49;101162.19;5082193;28;20020;-71
2022/01/08 05:25:13;;;;;;;42.47;20.98;;;;;;;0.33;93.08;101164.63;5079039;28;20016;-72
2022/01/08 05:27:38;;;;;;;41.40;20.27;;;;;;;0.32;93.36;101156.84;5083203;28;20081;-71
2022/01/08 05:30:04;;;;;;;37.42;20.33;;;;;;;0.32;93.68;101146.59;5082944;28;20036;-72
2022/01/08 05:32:30;;;;;;;37.30;20.73;;;;;;;0.33;93.60;101148.34;5087771;28;20079;-71
2022/01/08 05:34:55;;;;;;;41.58;19.92;;;;;;;0.34;93.12;101155.28;5085578;28;20167;-71
2022/01/08 05:37:21;;;;;;;39.00;19.20;;;;;;;0.37;93.67;101164.84;5085451;28;20013;-71
2022/01/08 05:39:47;;;;;;;35.58;19.25;;;;;;;0.38;93.13;101154.69;5086927;28;20441;-71
2022/01/08 05:42:13;;;;;;;39.15;18.05;;;;;;;0.38;93.48;101151.22;5086799;28;20058;-71
2022/01/08 05:44:38;;;;;;;35.67;18.15;;;;;;;0.38;93.48;101152.13;5085481;28;20012;-71
2022/01/08 05:47:04;;;;;;;39.95;18.67;;;;;;;0.39;94.11;101146.25;5086008;28;20024;-71
2022/01/08 05:49:29;;;;;;;37.35;17.60;;;;;;;0.39;93.86;101153.94;5086726;28;20031;-71
2022/01/08 05:51:54;;;;;;;31.58;17.38;;;;;;;0.41;93.58;101154.03;5086187;28;20034;-71
2022/01/08 05:54:20;;;;;;;35.38;16.67;;;;;;;0.40;93.13;101171.06;5086452;28;20020;-71
2022/01/08 05:56:45;;;;;;;33.38;17.27;;;;;;;0.40;93.01;101172.75;5085216;28;20248;-71
2022/01/08 05:59:11;;;;;;;34.13;16.45;;;;;;;0.40;92.88;101165.94;5090774;28;20020;-71
2022/01/08 06:01:36;;;;;;;33.25;16.30;;;;;;;0.38;92.60;101175.22;5084961;28;20150;-71
2022/01/08 06:04:03;;;;;;;32.97;15.55;;;;;;;0.37;93.08;101172.53;5093893;28;20032;-71
2022/01/08 06:06:28;;;;;;;33.40;16.20;;;;;;;0.35;92.65;101187.81;5092408;28;20033;-71
2022/01/08 06:08:54;;;;;;;38.50;16.20;;;;;;;0.36;93.08;101197.25;5085823;28;20028;-72
2022/01/08 06:11:19;;;;;;;37.70;15.63;;;;;;;0.34;92.73;101186.03;5086004;28;20025;-72
2022/01/08 06:13:45;;;;;;;31.67;15.30;;;;;;;0.31;93.49;101184.13;5086535;28;20303;-71
2022/01/08 06:16:10;;;;;;;30.95;16.13;;;;;;;0.34;93.53;101198.84;5085463;28;20034;-71
2022/01/08 06:18:37;;;;;;;30.08;17.13;;;;;;;0.32;93.50;101187.59;5086063;28;20088;-71
2022/01/08 06:21:03;;;;;;;33.25;16.08;;;;;;;0.31;93.36;101191.81;5085648;28;20215;-71
2022/01/08 06:23:29;;;;;;;36.55;16.73;;;;;;;0.32;93.22;101201.31;5085738;28;20117;-71
2022/01/08 06:25:54;;;;;;;36.05;16.85;;;;;;;0.33;93.49;101192.84;5085931;28;20320;-71
2022/01/08 06:28:20;;;;;;;39.15;17.50;;;;;;;0.34;93.30;101188.59;5085793;28;20027;-71
2022/01/08 06:30:47;;;;;;;33.10;16.08;;;;;;;0.36;93.67;101192.13;5085449;28;20083;-71
2022/01/08 06:33:13;;;;;;;38.85;16.50;;;;;;;0.35;94.13;101190.38;5083124;28;20163;-71
2022/01/08 06:35:38;;;;;;;31.95;16.48;;;;;;;0.34;93.84;101192.03;5085303;28;20028;-71
2022/01/08 06:38:03;;;;;;;35.65;17.05;;;;;;;0.35;93.52;101195.50;5085523;28;20028;-72
2022/01/08 06:40:29;;;;;;;37.55;16.80;;;;;;;0.34;94.33;101184.34;5084557;28;20023;-71
2022/01/08 06:42:54;;;;;;;33.15;16.85;;;;;;;0.35;93.57;101172.44;5085893;28;20030;-72
2022/01/08 06:45:19;;;;;;;35.03;18.02;;;;;;;0.35;93.91;101169.88;5084434;28;20105;-71
2022/01/08 06:47:45;;;;;;;30.00;16.02;;;;;;;0.35;93.35;101172.44;5084087;28;20012;-71
2022/01/08 06:50:12;;;;;;;33.65;16.52;;;;;;;0.33;93.68;101156.94;5085459;28;20027;-72
2022/01/08 06:52:38;;;;;;;36.10;16.33;;;;;;;0.33;93.92;101166.28;5085123;28;20263;-71
2022/01/08 06:55:04;;;;;;;31.73;16.38;;;;;;;0.31;93.82;101160.19;5085993;28;20025;-71
2022/01/08 06:57:29;;;;;;;33.97;16.35;;;;;;;0.30;94.17;101164.41;5085061;28;20024;-71
2022/01/08 06:59:54;;;;;;;35.00;17.55;;;;;;;0.31;93.54;101167.88;5084105;28;20054;-71
2022/01/08 07:02:19;;;;;;;34.55;16.58;;;;;;;0.32;93.72;101159.41;5088646;28;20023;-71
2022/01/08 07:04:45;;;;;;;33.92;16.75;;;;;;;0.32;93.24;101164.53;5085694;28;20114;-71
2022/01/08 07:07:10;;;;;;;30.42;15.77;;;;;;;0.30;93.82;101173.78;5084320;28;20150;-71
2022/01/08 07:09:35;;;;;;;35.65;15.75;;;;;;;0.29;93.13;101175.47;5084788;28;20290;-71
2022/01/08 07:12:01;;;;;;;36.63;17.60;;;;;;;0.28;93.50;101163.41;5085213;28;20020;-71
2022/01/08 07:14:26;;;;;;;36.70;16.42;;;;;;;0.26;93.22;101176.91;5089272;28;20039;-72
2022/01/08 07:16:51;;;;;;;39.58;17.83;;;;;;;0.22;93.88;101172.34;5084600;28;20082;-71
2022/01/08 07:19:18;;;;;;;37.85;17.27;;;;;;;0.22;93.54;101167.22;5084350;28;20051;-72
2022/01/08 07:21:49;;;;;;;32.80;16.35;;;;;;;0.23;93.90;101174.13;5084545;28;20024;-72
2022/01/08 07:24:14;;;;;;;33.67;15.65;;;;;;;0.22;93.55;101169.78;5087213;28;20057;-72
2022/01/08 07:26:40;;;;;;;34.00;16.20;;;;;;;0.20;93.82;101168.78;5093238;28;20158;-71
2022/01/08 07:29:05;;;;;;;33.75;15.23;;;;;;;0.20;93.85;101166.22;5084275;28;20027;-71
2022/01/08 07:31:30;;;;;;;34.55;16.23;;;;;;;0.18;93.87;101171.25;5084431;28;20032;-71
2022/01/08 07:33:56;;;;;;;36.38;16.42;;;;;;;0.14;93.62;101167.56;5084262;28;20016;-71
2022/01/08 07:36:22;;;;;;;38.67;17.27;;;;;;;0.13;94.58;101168.38;5084086;28;20032;-71
2022/01/08 07:38:47;;;;;;;36.95;16.67;;;;;;;0.12;94.06;101173.38;5084473;28;20020;-72
2022/01/08 07:41:13;;;;;;;35.53;16.55;;;;;;;0.13;94.27;101168.38;5084632;28;20051;-71
2022/01/08 07:43:39;;;;;;;38.70;16.88;;;;;;;0.13;94.82;101168.38;5084254;28;20032;-71
2022/01/08 07:46:04;;;;;;;37.88;16.50;;;;;;;0.14;94.07;101167.56;5087866;28;20031;-71
2022/01/08 07:48:30;;;;;;;39.40;16.50;;;;;;;0.16;94.46;101168.56;5083840;28;20041;-72
2022/01/08 07:50:55;;;;;;;40.00;16.25;;;;;;;0.19;94.79;101164.44;5083891;28;20070;-72
2022/01/08 07:53:21;;;;;;;40.65;15.23;;;;;;;0.21;94.05;101160.31;5083826;28;20268;-71
2022/01/08 07:55:46;;;;;;;35.20;15.95;;;;;;;0.23;94.37;101159.63;5083221;28;20023;-71
2022/01/08 07:58:12;;;;;;;37.05;15.73;;;;;;;0.26;94.66;101153.84;5083732;28;20020;-71
2022/01/08 08:00:37;;;;;;;31.58;15.30;;;;;;;0.27;94.74;101150.50;5084452;28;20087;-71
2022/01/08 08:03:02;;;;;;;36.17;15.05;;;;;;;0.28;94.45;101142.03;5089041;28;20020;-71
2022/01/08 08:05:30;;;;;;;33.85;15.05;;;;;;;0.31;95.09;101143.13;5083158;28;20037;-71
2022/01/08 08:07:55;;;;;;;39.80;14.98;;;;;;;0.36;94.28;101134.88;5083643;28;20277;-71
2022/01/08 08:10:22;;;;;;;36.67;14.77;;;;;;;0.38;94.46;101144.44;5093885;28;20033;-71
2022/01/08 08:12:47;;;;;;;32.72;14.23;;;;;;;0.41;94.62;101149.78;5083699;28;20043;-71
2022/01/08 08:15:15;;;;;;;39.33;15.85;;;;;;;0.44;94.63;101133.72;5083988;28;20174;-72
2022/01/08 08:17:40;;;;;;;29.35;13.88;;;;;;;0.46;94.80;101145.84;5084054;28;20020;-72
2022/01/08 08:20:07;;;;;;;38.70;14.95;;;;;;;0.47;94.49;101139.94;5083537;28;20039;-72
2022/01/08 08:22:32;;;;;;;32.88;13.38;;;;;;;0.51;94.89;101135.94;5083482;28;20027;-72
2022/01/08 08:24:57;;;;;;;32.85;14.23;;;;;;;0.50;95.29;101132.47;5086232;28;20012;-71
2022/01/08 08:27:23;;;;;;;35.45;14.90;;;;;;;0.52;94.83;101135.13;5083562;28;20039;-71
2022/01/08 08:29:48;;;;;;;37.03;14.73;;;;;;;0.55;95.25;101132.81;5083674;28;20263;-71
2022/01/08 08:32:14;;;;;;;36.38;14.23;;;;;;;0.56;94.60;101131.13;5083690;28;20017;-71
2022/01/08 08:34:39;;;;;;;34.92;14.52;;;;;;;0.56;95.03;101126.00;5083031;28;20034;-71
2022/01/08 08:37:04;;;;;;;38.70;15.05;;;;;;;0.58;94.96;101125.31;5083258;28;20059;-71
2022/01/08 08:39:30;;;;;;;39.15;15.75;;;;;;;0.59;95.21;101126.19;5086809;28;20024;-71
2022/01/08 08:41:55;;;;;;;39.75;15.75;;;;;;;0.62;94.64;101131.53;5089434;28;20014;-71
2022/01/08 08:44:20;;;;;;;37.72;16.45;;;;;;;0.62;95.70;101129.88;5082894;28;20028;-71
2022/01/08 08:46:46;;;;;;;48.03;17.17;;;;;;;0.64;94.98;101119.72;5083695;28;20004;-71
2022/01/08 08:49:11;;;;;;;41.97;17.15;;;;;;;0.64;94.43;101115.47;5083015;28;20020;-71
2022/01/08 08:51:37;;;;;;;42.95;16.63;;;;;;;0.64;95.07;101110.34;5076654;28;20037;-71
2022/01/08 08:54:02;;;;;;;57.90;18.17;;;;;;;0.66;95.41;101111.31;5072857;28;20016;-71
2022/01/08 08:56:29;;;;;;;47.80;18.02;;;;;;;0.68;95.44;101113.97;5076085;28;20020;-72
2022/01/08 08:58:55;;;;;;;46.00;17.73;;;;;;;0.69;95.06;101111.53;5069911;28;20063;-71
2022/01/08 09:01:20;;;;;;;44.15;18.10;;;;;;;0.71;95.40;101118.44;5073167;28;20024;-71
2022/01/08 09:03:45;;;;;;;46.75;17.90;;;;;;;0.73;95.55;101106.63;5071640;28;20042;-71
2022/01/08 09:06:10;;;;;;;53.72;18.80;;;;;;;0.75;95.07;101111.06;5082340;28;20179;-72
2022/01/08 09:08:36;;;;;;;55.13;18.88;;;;;;;0.78;95.34;101111.28;5084574;28;20263;-72
2022/01/08 09:11:01;;;;;;;61.47;21.08;;;;;;;0.80;95.38;101117.38;5087163;28;20115;-71
2022/01/08 09:13:28;;;;;;;49.78;20.08;;;;;;;0.84;95.59;101121.03;5084815;28;20027;-72
2022/01/08 09:15:53;;;;;;;50.63;19.70;;;;;;;0.86;95.66;101117.78;5084094;28;20027;-72
2022/01/08 09:18:19;;;;;;;49.80;18.58;;;;;;;0.89;95.74;101114.56;5083128;28;20080;-71
2022/01/08 09:20:45;;;;;;;48.90;18.38;;;;;;;0.91;95.37;101114.66;5093475;28;20028;-71
2022/01/08 09:23:10;;;;;;;53.03;18.63;;;;;;;0.94;95.35;101110.63;5083383;28;20023;-72
2022/01/08 09:25:35;;;;;;;61.22;20.40;;;;;;;0.95;95.56;101099.56;5085979;28;20278;-71
2022/01/08 09:28:01;;;;;;;47.78;18.45;;;;;;;0.97;95.70;101094.53;5087525;28;20221;-71
2022/01/08 09:30:26;;;;;;;47.20;18.42;;;;;;;0.98;95.84;101093.75;5087025;28;20348;-71
2022/01/08 09:32:52;;;;;;;53.72;20.15;;;;;;;1.01;95.38;101089.72;5086978;28;20063;-71
2022/01/08 09:35:19;;;;;;;51.92;19.25;;;;;;;1.01;95.26;101079.47;5089469;28;20050;-71
2022/01/08 09:37:44;;;;;;;59.08;19.50;;;;;;;1.02;95.30;101076.09;5090225;28;20251;-71
2022/01/08 09:40:13;;;;;;;52.28;19.67;;;;;;;1.03;95.39;101065.03;5086651;28;20024;-71
2022/01/08 09:42:41;;;;;;;53.57;19.23;;;;;;;1.05;95.22;101062.56;5091969;28;20026;-71
2022/01/08 09:45:07;;;;;;;48.47;18.77;;;;;;;1.07;95.12;101068.69;5085047;28;20258;-71
2022/01/08 09:47:33;;;;;;;56.05;19.27;;;;;;;1.11;95.66;101070.66;5079965;28;20039;-71
2022/01/08 09:49:58;;;;;;;59.25;19.40;;;;;;;1.15;95.88;101061.50;5083656;28;20020;-71
2022/01/08 09:52:24;;;;;;;55.40;19.90;;;;;;;1.19;95.10;101064.38;5081105;28;20008;-71
2022/01/08 09:54:49;;;;;;;55.08;19.42;;;;;;;1.23;95.60;101049.16;5079719;28;20092;-71
2022/01/08 09:57:15;;;;;;;58.85;21.42;;;;;;;1.28;94.95;101040.09;5092289;28;20102;-71
2022/01/08 09:59:40;;;;;;;66.15;21.23;;;;;;;1.31;95.08;101040.28;5086463;28;20016;-71
2022/01/08 10:02:06;;;;;;;62.92;21.65;;;;;;;1.31;95.38;101030.88;5095456;28;20058;-71
2022/01/08 10:04:35;;;;;;;62.65;20.98;;;;;;;1.34;95.38;101030.22;5081207;28;20021;-71
2022/01/08 10:07:26;;;;;;;58.83;20.98;;;;;;;1.36;95.62;101020.91;5078389;28;20138;-71
2022/01/08 10:10:17;;;;;;;65.75;20.75;;;;;;;1.36;94.86;101016.69;5076064;28;20043;-71
2022/01/08 10:13:00;;;;;;;54.88;20.60;;;;;;;1.38;95.07;101004.81;5081976;28;20016;-71
2022/01/08 10:18:29;;;;;;;55.75;20.27;;;;;;;1.38;95.49;100983.41;5076313;28;20028;-71
2022/01/08 10:20:56;;;;;;;63.97;22.42;;;;;;;1.38;95.28;100976.56;5084069;28;20047;-71
2022/01/08 10:23:28;;;;;;;60.45;21.23;;;;;;;1.38;95.05;100963.75;5074949;28;20250;-71
2022/01/08 10:26:01;;;;;;;61.17;20.65;;;;;;;1.39;94.77;100955.25;5082024;28;20271;-71
2022/01/08 10:28:58;;;;;;;62.38;19.63;;;;;;;1.44;95.11;100954.66;5075392;28;20021;-71
2022/01/08 10:31:40;;;;;;;58.95;19.75;;;;;;;1.46;95.09;100946.22;5080873;28;20103;-66
2022/01/08 10:34:31;;;;;;;60.10;19.15;;;;;;;1.49;94.75;100946.44;5078158;28;20031;-66
2022/01/08 10:36:56;;;;;;;55.45;18.20;;;;;;;1.54;94.78;100944.16;5071944;28;20028;-66
2022/01/08 10:39:28;;;;;;;60.88;19.40;;;;;;;1.58;94.65;100945.22;5085647;28;20044;-66
2022/01/08 10:41:55;;;;;;;53.05;17.77;;;;;;;1.60;95.18;100936.81;5085665;28;20205;-66
2022/01/08 10:44:25;;;;;;;54.70;17.55;;;;;;;1.65;94.21;100926.81;5085473;28;20016;-66
2022/01/08 10:46:59;;;;;;;57.88;19.25;;;;;;;1.67;94.16;100923.56;5086197;28;20255;-66
2022/01/08 10:49:32;;;;;;;48.65;16.55;;;;;;;1.70;94.67;100910.03;5091376;28;20009;-66
2022/01/08 10:52:00;;;;;;;56.10;17.65;;;;;;;1.75;94.06;100898.31;5085271;28;20051;-66
2022/01/08 10:54:28;;;;;;;54.78;18.00;;;;;;;1.78;94.27;100897.63;5084164;28;20062;-66
2022/01/08 10:56:59;;;;;;;61.38;18.80;;;;;;;1.80;94.53;100902.06;5083768;28;20273;-66
2022/01/08 10:59:26;;;;;;;52.88;18.30;;;;;;;1.83;94.51;100894.53;5083798;28;20223;-66
2022/01/08 11:01:55;;;;;;;51.33;17.40;;;;;;;1.84;94.59;100886.06;5084044;28;20024;-66
2022/01/08 11:04:39;;;;;;;50.43;17.07;;;;;;;1.86;93.79;100881.88;5085392;28;20043;-66
2022/01/08 11:07:26;;;;;;;50.50;17.70;;;;;;;1.89;93.94;100863.19;5084896;28;20032;-67
2022/01/08 11:09:54;;;;;;;48.28;16.98;;;;;;;1.91;93.86;100859.00;5081330;28;20048;-66
2022/01/08 11:12:28;;;;;;;47.38;16.55;;;;;;;1.95;94.04;100860.09;5085127;28;20282;-66
2022/01/08 11:17:23;;;;;;;41.50;15.43;;;;;;;2.00;93.60;100835.53;5084849;28;20024;-66
2022/01/08 11:19:57;;;;;;;46.25;15.52;;;;;;;2.04;93.28;100834.91;5084929;28;20024;-66
2022/01/08 11:22:25;;;;;;;40.42;14.23;;;;;;;2.05;93.09;100827.31;5085537;28;20024;-66
2022/01/08 11:24:59;;;;;;;38.70;14.43;;;;;;;2.08;93.42;100821.47;5085072;28;20098;-66
2022/01/08 11:27:46;;;;;;;42.20;13.73;;;;;;;2.12;93.50;100817.41;5084776;28;20028;-66
2022/01/08 11:30:20;;;;;;;42.85;13.77;;;;;;;2.15;93.59;100802.16;5084911;28;20160;-66
2022/01/08 11:32:51;;;;;;;38.22;12.93;;;;;;;2.21;93.16;100797.34;5084780;28;20013;-66
2022/01/08 11:35:17;;;;;;;37.92;14.32;;;;;;;2.24;92.99;100803.53;5084902;28;20017;-66
2022/01/08 11:37:46;;;;;;;38.35;14.25;;;;;;;2.29;92.72;100787.47;5084693;28;20031;-66
2022/01/08 11:40:13;;;;;;;;;;;;;;;2.33;92.93;100789.44;5071446;28;20076;-66
2022/01/08 11:42:39;;;;;;;31.23;11.88;;;;;;;2.32;92.17;100785.97;5084773;28;20048;-67